createdAt,value
2022-11-06T00:01:22.200Z,3.40
2022-11-06T00:04:07.806Z,2.80
2022-11-06T00:06:53.134Z,3.13
2022-11-06T00:09:38.705Z,3.00
2022-11-06T00:12:24.347Z,2.90
2022-11-06T00:15:10.890Z,3.10
2022-11-06T00:17:56.878Z,3.53
2022-11-06T00:20:42.350Z,3.40
2022-11-06T00:23:27.794Z,3.07
2022-11-06T00:26:16.985Z,3.07
2022-11-06T00:29:03.358Z,2.87
2022-11-06T00:31:50.643Z,3.37
2022-11-06T00:34:36.223Z,2.90
2022-11-06T00:37:21.704Z,3.10
2022-11-06T00:40:07.761Z,3.07
2022-11-06T00:42:55.100Z,3.40
2022-11-06T00:45:40.563Z,2.77
2022-11-06T00:48:27.659Z,2.80
2022-11-06T00:51:25.594Z,3.33
2022-11-06T00:54:12.188Z,3.00
2022-11-06T00:56:57.730Z,3.50
2022-11-06T00:59:43.233Z,3.13
2022-11-06T01:02:29.033Z,2.63
2022-11-06T01:05:14.872Z,3.07
2022-11-06T01:08:00.577Z,3.33
2022-11-06T01:10:45.991Z,3.20
2022-11-06T01:13:31.434Z,2.93
2022-11-06T01:16:17.422Z,3.83
2022-11-06T01:19:03.082Z,2.77
2022-11-06T01:21:50.456Z,2.87
2022-11-06T01:24:36.256Z,2.90
2022-11-06T01:27:26.768Z,3.50
2022-11-06T01:30:13.520Z,2.80
2022-11-06T01:33:00.113Z,3.43
2022-11-06T01:35:47.485Z,2.73
2022-11-06T01:38:33.138Z,2.70
2022-11-06T01:41:21.830Z,3.77
2022-11-06T01:44:33.412Z,3.37
2022-11-06T01:47:24.098Z,3.10
2022-11-06T01:50:10.984Z,3.10
2022-11-06T01:53:00.886Z,3.40
2022-11-06T01:55:50.945Z,3.57
2022-11-06T01:58:40.669Z,3.10
2022-11-06T02:01:31.416Z,4.07
2022-11-06T02:04:23.572Z,3.23
2022-11-06T02:07:09.939Z,3.47
2022-11-06T02:09:55.674Z,3.27
2022-11-06T02:12:58.828Z,3.27
2022-11-06T02:15:55.069Z,3.23
2022-11-06T02:19:02.119Z,2.87
2022-11-06T02:22:11.780Z,3.47
2022-11-06T02:25:12.618Z,3.00
2022-11-06T02:28:14.441Z,3.10
2022-11-06T02:31:03.218Z,2.93
2022-11-06T02:33:54.834Z,3.40
2022-11-06T02:36:53.092Z,3.53
2022-11-06T02:39:42.448Z,3.70
2022-11-06T02:42:29.635Z,3.33
2022-11-06T02:45:18.617Z,3.60
2022-11-06T02:48:06.826Z,3.23
2022-11-06T02:50:54.762Z,3.43
2022-11-06T02:53:43.558Z,3.00
2022-11-06T02:56:34.924Z,2.57
2022-11-06T02:59:29.976Z,2.53
2022-11-06T03:02:22.140Z,2.97
2022-11-06T03:05:19.016Z,3.00
2022-11-06T03:08:14.808Z,2.73
2022-11-06T03:11:22.968Z,3.10
2022-11-06T03:14:16.948Z,2.73
2022-11-06T03:17:13.232Z,3.33
2022-11-06T03:20:36.862Z,2.50
2022-11-06T03:23:41.567Z,2.33
2022-11-06T03:26:27.222Z,2.53
2022-11-06T03:29:16.966Z,2.57
2022-11-06T03:32:14.547Z,2.90
2022-11-06T03:35:09.404Z,2.60
2022-11-06T03:38:27.772Z,3.07
2022-11-06T03:41:20.550Z,2.47
2022-11-06T03:44:11.365Z,2.60
2022-11-06T03:47:15.497Z,2.70
2022-11-06T03:50:07.568Z,2.30
2022-11-06T03:52:58.718Z,2.40
2022-11-06T03:55:52.322Z,2.77
2022-11-06T03:58:39.592Z,2.23
2022-11-06T04:01:29.398Z,2.00
2022-11-06T04:04:21.769Z,2.30
2022-11-06T04:07:16.787Z,2.63
2022-11-06T04:10:24.766Z,2.60
2022-11-06T04:13:28.647Z,2.50
2022-11-06T04:16:14.729Z,2.20
2022-11-06T04:19:00.920Z,2.03
2022-11-06T04:21:52.295Z,2.47
2022-11-06T04:25:06.521Z,2.30
2022-11-06T04:28:21.020Z,2.23
2022-11-06T04:31:23.748Z,2.00
2022-11-06T04:34:22.141Z,2.27
2022-11-06T04:37:12.848Z,2.47
2022-11-06T04:40:33.435Z,2.30
2022-11-06T04:43:36.797Z,2.07
2022-11-06T04:46:27.521Z,2.20
2022-11-06T04:49:14.229Z,2.30
2022-11-06T04:52:03.694Z,1.73
2022-11-06T04:54:50.256Z,2.27
2022-11-06T04:57:35.814Z,2.27
2022-11-06T05:00:21.456Z,2.60
2022-11-06T05:03:07.214Z,1.90
2022-11-06T05:05:52.687Z,2.03
2022-11-06T05:08:38.150Z,2.37
2022-11-06T05:11:23.695Z,2.17
2022-11-06T05:14:09.259Z,2.27
2022-11-06T05:16:55.037Z,2.70
2022-11-06T05:19:40.628Z,1.90
2022-11-06T05:22:44.534Z,2.03
2022-11-06T05:25:33.466Z,2.13
2022-11-06T05:28:19.077Z,2.03
2022-11-06T05:31:04.676Z,2.40
2022-11-06T05:33:50.467Z,2.00
2022-11-06T05:36:36.166Z,2.13
2022-11-06T05:39:21.586Z,2.30
2022-11-06T05:42:07.181Z,2.00
2022-11-06T05:44:52.685Z,2.20
2022-11-06T05:47:41.628Z,2.00
2022-11-06T05:50:27.263Z,2.23
2022-11-06T05:53:12.795Z,1.50
2022-11-06T05:55:59.054Z,2.30
2022-11-06T05:58:44.511Z,1.83
2022-11-06T06:01:30.505Z,2.10
2022-11-06T06:04:16.045Z,1.83
2022-11-06T06:07:01.798Z,1.80
2022-11-06T06:09:47.730Z,1.70
2022-11-06T06:12:33.400Z,2.20
2022-11-06T06:15:19.101Z,1.80
2022-11-06T06:18:05.152Z,1.90
2022-11-06T06:20:50.542Z,2.40
2022-11-06T06:23:36.127Z,2.37
2022-11-06T06:26:21.775Z,2.20
2022-11-06T06:29:07.210Z,2.47
2022-11-06T06:31:52.844Z,2.17
2022-11-06T06:34:38.420Z,2.23
2022-11-06T06:37:23.959Z,2.43
2022-11-06T06:40:10.857Z,2.23
2022-11-06T06:42:57.748Z,2.40
2022-11-06T06:45:43.416Z,2.73
2022-11-06T06:48:29.360Z,1.77
2022-11-06T06:51:18.444Z,1.53
2022-11-06T06:54:07.024Z,2.20
2022-11-06T06:56:52.663Z,2.10
2022-11-06T06:59:38.093Z,1.93
2022-11-06T07:02:23.715Z,1.60
2022-11-06T07:05:09.229Z,1.90
2022-11-06T07:07:54.969Z,2.13
2022-11-06T07:10:40.602Z,1.70
2022-11-06T07:13:28.386Z,1.70
2022-11-06T07:16:16.921Z,1.87
2022-11-06T07:19:03.068Z,2.17
2022-11-06T07:21:52.339Z,1.67
2022-11-06T07:24:37.951Z,2.37
2022-11-06T07:27:23.455Z,1.67
2022-11-06T07:30:09.498Z,1.87
2022-11-06T07:32:55.015Z,1.80
2022-11-06T07:35:40.685Z,1.83
2022-11-06T07:38:26.042Z,1.63
2022-11-06T07:41:14.419Z,1.70
2022-11-06T07:44:00.100Z,1.67
2022-11-06T07:46:45.499Z,2.20
2022-11-06T07:49:31.007Z,1.60
2022-11-06T07:52:16.394Z,1.77
2022-11-06T07:55:01.884Z,1.70
2022-11-06T07:57:47.820Z,2.00
2022-11-06T08:00:33.511Z,1.60
2022-11-06T08:03:19.486Z,1.60
2022-11-06T08:06:05.390Z,1.70
2022-11-06T08:08:54.859Z,1.87
2022-11-06T08:11:43.229Z,1.73
2022-11-06T08:14:29.068Z,1.80
2022-11-06T08:17:14.637Z,1.50
2022-11-06T08:20:00.218Z,1.60
2022-11-06T08:22:45.824Z,1.43
2022-11-06T08:25:32.125Z,1.40
2022-11-06T08:28:17.581Z,1.77
2022-11-06T08:31:07.093Z,1.80
2022-11-06T08:33:53.539Z,1.70
2022-11-06T08:36:49.440Z,1.83
2022-11-06T08:39:35.330Z,1.90
2022-11-06T08:42:20.840Z,1.60
2022-11-06T08:45:06.780Z,1.33
2022-11-06T08:47:52.250Z,1.63
2022-11-06T08:50:40.095Z,1.50
2022-11-06T08:53:26.101Z,1.50
2022-11-06T08:56:11.738Z,1.33
2022-11-06T08:58:57.350Z,1.37
2022-11-06T09:01:42.929Z,1.33
2022-11-06T09:04:28.624Z,1.43
2022-11-06T09:07:14.256Z,1.53
2022-11-06T09:09:59.863Z,1.67
2022-11-06T09:12:45.400Z,1.37
2022-11-06T09:15:31.410Z,1.40
2022-11-06T09:18:17.229Z,1.60
2022-11-06T09:21:02.990Z,1.52
2022-11-06T09:23:49.346Z,1.60
2022-11-06T09:26:35.230Z,1.50
2022-11-06T09:29:20.930Z,1.70
2022-11-06T09:32:07.560Z,1.80
2022-11-06T09:34:53.311Z,1.40
2022-11-06T09:37:38.791Z,1.33
2022-11-06T09:40:38.079Z,1.48
2022-11-06T09:46:48.759Z,1.48
2022-11-06T09:49:53.697Z,1.50
2022-11-06T09:52:50.423Z,1.65
2022-11-06T09:55:40.981Z,1.70
2022-11-06T09:58:37.271Z,1.63
2022-11-06T10:01:34.655Z,1.52
2022-11-06T10:04:41.688Z,1.30
2022-11-06T10:07:29.078Z,1.30
2022-11-06T10:10:18.186Z,1.05
2022-11-06T10:13:32.805Z,1.60
2022-11-06T10:16:46.240Z,1.40
2022-11-06T10:19:54.642Z,1.30
2022-11-06T10:22:43.066Z,1.45
2022-11-06T10:25:49.503Z,1.85
2022-11-06T10:28:38.208Z,1.20
2022-11-06T10:31:28.536Z,1.42
2022-11-06T10:34:28.093Z,1.20
2022-11-06T10:37:20.499Z,1.30
2022-11-06T10:40:11.251Z,1.30
2022-11-06T10:43:03.027Z,1.33
2022-11-06T10:45:54.049Z,1.50
2022-11-06T10:48:46.010Z,1.20
2022-11-06T10:51:55.739Z,1.50
2022-11-06T10:54:41.545Z,1.40
2022-11-06T10:57:27.252Z,1.58
2022-11-06T11:00:15.348Z,1.30
2022-11-06T11:03:07.231Z,1.52
2022-11-06T11:05:52.966Z,1.30
2022-11-06T11:08:44.163Z,1.20
2022-11-06T11:11:29.957Z,1.50
2022-11-06T11:14:23.696Z,1.30
2022-11-06T11:17:09.181Z,1.55
2022-11-06T11:19:54.682Z,1.58
2022-11-06T11:22:40.210Z,1.45
2022-11-06T11:25:26.028Z,1.38
2022-11-06T11:28:33.149Z,1.40
2022-11-06T11:31:19.274Z,1.58
2022-11-06T11:34:14.640Z,1.40
2022-11-06T11:37:03.030Z,1.48
2022-11-06T11:39:48.323Z,1.40
2022-11-06T11:42:34.002Z,1.35
2022-11-06T11:45:21.200Z,1.42
2022-11-06T11:48:13.943Z,1.23
2022-11-06T11:51:12.526Z,1.70
2022-11-06T11:54:06.571Z,1.80
2022-11-06T11:57:16.882Z,1.55
2022-11-06T12:00:06.270Z,1.50
2022-11-06T12:03:10.945Z,1.50
2022-11-06T12:06:13.337Z,1.73
2022-11-06T12:08:58.949Z,1.80
2022-11-06T12:11:45.366Z,1.35
2022-11-06T12:14:36.371Z,1.48
2022-11-06T12:17:24.040Z,1.50
2022-11-06T12:20:15.958Z,1.63
2022-11-06T12:23:04.177Z,1.67
2022-11-06T12:26:18.147Z,1.52
2022-11-06T12:29:47.878Z,1.50
2022-11-06T12:32:54.260Z,1.77
2022-11-06T12:35:46.164Z,1.50
2022-11-06T12:38:51.857Z,1.58
2022-11-06T12:41:45.910Z,1.73
2022-11-06T12:44:31.556Z,1.58
2022-11-06T12:47:32.902Z,1.60
2022-11-06T12:50:27.067Z,1.60
2022-11-06T12:53:18.875Z,1.80
2022-11-06T12:56:26.560Z,1.38
2022-11-06T12:59:33.070Z,1.63
2022-11-06T13:02:43.902Z,1.80
2022-11-06T13:05:39.050Z,2.03
2022-11-06T13:08:52.840Z,2.05
2022-11-06T13:12:13.410Z,1.45
2022-11-06T13:15:40.463Z,1.95
2022-11-06T13:18:39.698Z,1.70
2022-11-06T13:21:31.287Z,1.80
2022-11-06T13:24:32.274Z,1.60
2022-11-06T13:27:43.846Z,2.33
2022-11-06T13:30:30.554Z,2.42
2022-11-06T13:33:29.366Z,1.70
2022-11-06T13:36:16.044Z,2.50
2022-11-06T13:39:24.374Z,2.35
2022-11-06T13:42:30.987Z,2.20
2022-11-06T13:45:17.773Z,2.50
2022-11-06T13:48:39.550Z,1.90
2022-11-06T13:51:28.257Z,2.50
2022-11-06T13:54:40.975Z,2.28
2022-11-06T13:57:43.510Z,2.67
2022-11-06T14:00:56.060Z,2.42
2022-11-06T14:03:54.040Z,2.28
2022-11-06T14:06:41.337Z,1.90
2022-11-06T14:09:30.962Z,2.40
2022-11-06T14:12:22.322Z,2.28
2022-11-06T14:15:19.991Z,2.20
2022-11-06T14:18:06.035Z,2.00
2022-11-06T14:21:26.530Z,2.15
2022-11-06T14:24:39.502Z,2.03
2022-11-06T14:27:25.245Z,2.13
2022-11-06T14:30:50.277Z,1.90
2022-11-06T14:33:40.610Z,2.15
2022-11-06T14:36:28.205Z,2.33
2022-11-06T14:39:13.855Z,1.90
2022-11-06T14:42:00.085Z,1.88
2022-11-06T14:44:48.449Z,1.73
2022-11-06T14:47:41.495Z,1.83
2022-11-06T14:50:39.837Z,1.70
2022-11-06T14:53:33.998Z,2.10
2022-11-06T14:56:26.941Z,1.65
2022-11-06T14:59:32.780Z,2.15
2022-11-06T15:02:26.371Z,1.60
2022-11-06T15:05:19.345Z,1.88
2022-11-06T15:08:05.866Z,2.25
2022-11-06T15:10:53.606Z,1.70
2022-11-06T15:13:38.994Z,1.88
2022-11-06T15:16:33.728Z,1.70
2022-11-06T15:19:27.727Z,2.25
2022-11-06T15:22:13.332Z,1.80
2022-11-06T15:25:18.697Z,1.70
2022-11-06T15:28:20.647Z,1.80
2022-11-06T15:31:12.067Z,1.92
2022-11-06T15:34:03.044Z,1.77
2022-11-06T15:36:54.313Z,1.80
2022-11-06T15:39:49.471Z,1.70
2022-11-06T15:42:35.823Z,2.05
2022-11-06T15:45:28.093Z,1.90
2022-11-06T15:48:23.583Z,1.40
2022-11-06T15:51:28.163Z,1.48
2022-11-06T15:54:14.629Z,1.67
2022-11-06T15:57:04.003Z,1.75
2022-11-06T15:59:50.012Z,1.60
2022-11-06T16:02:48.842Z,1.90
2022-11-06T16:05:37.242Z,1.63
2022-11-06T16:08:26.113Z,1.80
2022-11-06T16:11:17.930Z,1.70
2022-11-06T16:14:03.363Z,1.58
2022-11-06T16:16:52.892Z,1.63
2022-11-06T16:19:39.879Z,1.40
2022-11-06T16:22:30.849Z,1.60
2022-11-06T16:25:19.651Z,1.60
2022-11-06T16:28:13.126Z,1.58
2022-11-06T16:31:13.538Z,1.60
2022-11-06T16:34:20.322Z,1.80
2022-11-06T16:37:31.619Z,1.45
2022-11-06T16:40:50.416Z,1.50
2022-11-06T16:43:36.213Z,1.30
2022-11-06T16:46:21.708Z,1.50
2022-11-06T16:49:34.242Z,1.20
2022-11-06T16:52:33.020Z,1.52
2022-11-06T16:55:25.759Z,1.33
2022-11-06T16:58:17.824Z,1.83
2022-11-06T17:01:06.530Z,1.60
2022-11-06T17:04:03.020Z,1.80
2022-11-06T17:06:49.630Z,1.70
2022-11-06T17:09:35.826Z,1.67
2022-11-06T17:12:21.575Z,1.50
2022-11-06T17:15:07.514Z,1.67
2022-11-06T17:17:52.978Z,1.48
2022-11-06T17:20:38.752Z,1.98
2022-11-06T17:23:25.614Z,1.70
2022-11-06T17:26:27.900Z,2.00
2022-11-06T17:29:16.985Z,2.10
2022-11-06T17:32:06.838Z,2.57
2022-11-06T17:34:52.648Z,15.83
2022-11-06T17:37:38.243Z,44.63
2022-11-06T17:40:23.997Z,37.03
2022-11-06T17:43:10.612Z,34.80
2022-11-06T17:45:56.461Z,25.57
2022-11-06T17:48:42.068Z,20.17
2022-11-06T17:51:46.489Z,31.33
2022-11-06T17:54:34.005Z,22.87
2022-11-06T17:57:23.915Z,20.50
2022-11-06T18:00:11.427Z,16.63
2022-11-06T18:03:01.671Z,13.87
2022-11-06T18:05:47.783Z,17.07
2022-11-06T18:08:33.461Z,16.47
2022-11-06T18:11:18.998Z,11.53
2022-11-06T18:14:04.666Z,13.67
2022-11-06T18:16:51.052Z,9.10
2022-11-06T18:19:36.816Z,9.03
2022-11-06T18:22:22.408Z,8.37
2022-11-06T18:25:08.272Z,8.33
2022-11-06T18:27:53.706Z,8.70
2022-11-06T18:30:39.284Z,7.37
2022-11-06T18:33:24.813Z,8.63
2022-11-06T18:36:11.850Z,5.47
2022-11-06T18:38:57.515Z,6.57
2022-11-06T18:41:43.048Z,5.80
2022-11-06T18:44:28.643Z,4.30
2022-11-06T18:47:14.338Z,5.67
2022-11-06T18:49:59.817Z,4.57
2022-11-06T18:52:57.524Z,4.83
2022-11-06T18:55:45.928Z,5.43
2022-11-06T18:58:31.966Z,4.40
2022-11-06T19:01:23.129Z,4.50
2022-11-06T19:04:11.186Z,4.33
2022-11-06T19:06:56.704Z,4.60
2022-11-06T19:09:43.172Z,4.03
2022-11-06T19:12:28.988Z,2.87
2022-11-06T19:15:14.405Z,3.60
2022-11-06T19:18:00.656Z,3.00
2022-11-06T19:20:46.319Z,2.87
2022-11-06T19:23:32.181Z,2.83
2022-11-06T19:26:30.480Z,3.17
2022-11-06T19:29:16.947Z,3.57
2022-11-06T19:32:03.104Z,3.90
2022-11-06T19:34:48.527Z,3.17
2022-11-06T19:37:34.451Z,4.27
2022-11-06T19:40:20.240Z,16.83
2022-11-06T19:43:07.111Z,33.60
2022-11-06T19:45:53.254Z,33.97
2022-11-06T19:48:38.744Z,25.60
2022-11-06T19:51:25.857Z,25.93
2022-11-06T19:54:11.443Z,21.17
2022-11-06T19:57:29.172Z,18.70
2022-11-06T20:00:04.999Z,16.63
2022-11-06T20:02:57.093Z,13.20
2022-11-06T20:05:42.911Z,13.60
2022-11-06T20:08:28.742Z,13.00
2022-11-06T20:11:14.948Z,6.10
2022-11-06T20:14:00.901Z,7.90
2022-11-06T20:16:46.274Z,7.63
2022-11-06T20:19:31.852Z,9.00
2022-11-06T20:22:17.552Z,8.27
2022-11-06T20:25:03.618Z,5.53
2022-11-06T20:27:49.400Z,4.97
2022-11-06T20:30:35.594Z,3.17
2022-11-06T20:33:21.512Z,4.63
2022-11-06T20:36:15.391Z,4.70
2022-11-06T20:39:01.889Z,4.13
2022-11-06T20:41:47.803Z,3.17
2022-11-06T20:44:33.573Z,3.70
2022-11-06T20:47:19.590Z,3.60
2022-11-06T20:50:06.007Z,2.80
2022-11-06T20:52:51.384Z,3.53
2022-11-06T20:55:37.064Z,2.83
2022-11-06T20:58:22.737Z,3.73
2022-11-06T21:01:14.925Z,2.80
2022-11-06T21:04:00.707Z,2.90
2022-11-06T21:06:46.014Z,2.17
2022-11-06T21:09:31.712Z,2.40
2022-11-06T21:12:17.349Z,2.10
2022-11-06T21:15:03.027Z,2.07
2022-11-06T21:17:48.822Z,2.00
2022-11-06T21:20:37.801Z,1.70
2022-11-06T21:23:23.464Z,1.93
2022-11-06T21:26:10.580Z,1.80
2022-11-06T21:28:56.766Z,1.73
2022-11-06T21:31:48.608Z,1.50
2022-11-06T21:34:34.688Z,2.00
2022-11-06T21:37:20.131Z,1.57
2022-11-06T21:40:06.304Z,1.50
2022-11-06T21:42:51.774Z,1.83
2022-11-06T21:45:37.639Z,1.57
2022-11-06T21:48:44.760Z,1.73
2022-11-06T21:51:31.619Z,1.50
2022-11-06T21:54:35.919Z,1.40
2022-11-06T21:57:21.331Z,1.20
2022-11-06T22:00:08.613Z,1.50
2022-11-06T22:02:57.323Z,1.60
2022-11-06T22:05:43.272Z,1.40
2022-11-06T22:08:30.645Z,1.80
2022-11-06T22:11:20.732Z,1.60
2022-11-06T22:14:17.127Z,1.40
2022-11-06T22:17:03.028Z,1.70
2022-11-06T22:19:48.419Z,1.80
2022-11-06T22:22:33.852Z,1.17
2022-11-06T22:25:19.273Z,1.60
2022-11-06T22:28:04.995Z,1.43
2022-11-06T22:30:50.608Z,1.50
2022-11-06T22:33:36.939Z,1.73
2022-11-06T22:36:23.455Z,1.40
2022-11-06T22:39:10.546Z,1.47
2022-11-06T22:41:56.127Z,1.60
2022-11-06T22:44:42.114Z,1.27
2022-11-06T22:47:27.998Z,1.47
2022-11-06T22:50:13.560Z,1.70
2022-11-06T22:52:58.890Z,1.77
2022-11-06T22:55:44.246Z,1.77
2022-11-06T22:58:30.600Z,1.53
2022-11-06T23:01:21.601Z,1.50
2022-11-06T23:04:14.468Z,1.87
2022-11-06T23:07:00.053Z,1.50
2022-11-06T23:09:45.627Z,1.70
2022-11-06T23:12:31.118Z,1.63
2022-11-06T23:15:16.776Z,1.60
2022-11-06T23:18:02.383Z,1.73
2022-11-06T23:20:47.859Z,1.80
2022-11-06T23:23:33.563Z,1.40
2022-11-06T23:26:19.387Z,1.83
2022-11-06T23:29:05.200Z,1.43
2022-11-06T23:31:50.712Z,1.50
2022-11-06T23:34:36.254Z,1.50
2022-11-06T23:37:22.511Z,1.80
2022-11-06T23:40:10.969Z,1.60
2022-11-06T23:42:57.597Z,1.40
2022-11-06T23:45:49.213Z,1.50
2022-11-06T23:48:35.080Z,1.43
2022-11-06T23:51:21.463Z,1.40
2022-11-06T23:54:07.034Z,1.20
2022-11-06T23:56:52.739Z,1.60
2022-11-06T23:59:38.286Z,1.27
